Pagina principale
METAR-TAF:

METAR-TAF

Aeroporti :

Biserta, Tunisia

latitudine: 37-15N, longitudine: 009-48E, altezza: 5 m

Osservazione

Il bollettino è stato emesso 1 ora e 1 minuti fa, alle 17:00 UTC
Vento 5 kt da ovest
Temperature 11°C
Umidità 71%
Pressione 1024 hPa
Visibilità 10 km o più
Nubi sparse ad un'altezza di 2000 ft

METAR: DTTB 201700Z 26005KT 9999 SCT020 11/06 Q1024

Ora: 19:01 (18:01 UTC)

Previsione

Il bollettino è stato emesso 3 ore e 1 minuti fa, alle 15:00 UTC
Previsione valida dal 20 alle 16 UTC al 21 alle 01 UTC
Vento 10 kt da ovest/nord-ovest
Visibilità 10 km o più
Nubi sparse ad un'altezza di 2000 ft
Nubi sparse ad un'altezza di 3000 ft
Evoluzione graduale
dal 20 alle 16 UTC al 20 alle 18 UTC
Vento 5 kt da sud-ovest

TAF: DTTB 201500Z 2016/2101 29010KT 9999 SCT020 SCT030 BECMG 2016/2018 22005KT

Osservazioni e previsioni meteorologiche di più di 4000 aeroporti (messaggi METAR e TAF).

Le stazioni disponibili sono rappresentate dai dischi gialli e rossi sulla carta.

Puntare il mouse per vedere il nome della stazione.

Clicca sopra per visualizzare le osservazioni e previsioni meteorologiche.

Per cambiare la mappa : fare clic sui pulsanti verdi con una croce nera per ingrandire, il pulsante verde con un trattino per diminuire, o sulla freccia verde per le mappe adiacenti.


METAR-TAF: